Station info - map view · info · telemetry · weather · raw · status · beacons · messages · bulletins · browse · moving · my account
Callsign, ship name or locator: Clear       
It is possible to search using wildcards (*?) after a prefix. Example: OH*
APRS station KJ6CZL - show graphs
Map loading...
Comment: 146.460
Mic-E message: En route
Location: 38°43.51' N 120°53.17' W - locator CM98NR34PA - show map - static map
4.4 miles Northwest bearing 299° from Diamond Springs, El Dorado County, California, United States [?]
4.5 miles Northwest bearing 311° from Deer Park, El Dorado County, California, United States
34.3 miles East bearing 73° from Sacramento, Sacramento County, California, United States
57.3 miles North bearing 22° from Stockton, San Joaquin County, California, United States
Last position: 2020-10-18 23:01:35 EDT (3d 15h28m ago)
2020-10-18 20:01:35 PDT local time at Diamond Springs, United States [?]
Altitude: 1388 ft
Course: 329°
Speed: 29 MPH
Device: Kenwood: TM-D710 (rig)
Last path: KJ6CZL>SX4SUQ via K6CDF-8*,WIDE2-1,qAR,GTOWN (good)
Positions stored: 4948
Packet rate: 69 seconds between packets on average during 3365 seconds.
Other SSIDs: KJ6CZL-10 KJ6CZL-5
Stations near current position of KJ6CZL - show more
callsign distance last heard - EDT      callsign distance last heard - EDT
CW61292.9 miles 136°2020-10-22 14:29:08 W6TKD-53.5 miles 147°2020-10-17 19:29:02
KK6IQK-54.3 miles 228°2020-10-20 15:24:18 K6EWN-34.3 miles 119°2020-10-18 16:40:56
W5VPR-N4.4 miles 87°2020-10-22 14:11:27 KM6RQY-94.4 miles 88°2020-10-22 11:44:07
N6JSA-94.4 miles 114°2020-09-26 21:53:19 KN6LJG-i4.6 miles 85°2020-10-15 22:12:52
EW56915.6 miles 69°2020-10-22 14:27:23 DW44645.6 miles 245°2020-09-30 12:15:29
DW50346.4 miles 248°2020-10-22 14:17:12 FW04436.5 miles 197°2020-10-22 14:29:48
EW45436.5 miles 96°2020-10-22 14:16:50 W6TWW-96.5 miles 115°2020-10-13 17:02:42
FW02816.8 miles 213°2020-10-22 14:15:28 CW51217.0 miles 95°2020-10-22 14:28:42
DW74017.4 miles 246°2020-10-22 14:30:09 KE6GLA C7.4 miles 247°2020-10-22 14:13:41
KE6GLA-C7.4 miles 247°2020-10-22 14:13:51 KG6KSD-97.7 miles 232°2020-10-16 19:47:57
Stations which heard KJ6CZL directly on radio –
callsign pkts first heard - EDT last heard longest (tx => rx) longest at - EDT
K6TJS 1 2020-10-18 12:29:45 2020-10-18 12:29:45 CM98VP > CM97OB 113.2 miles 197° 2020-10-18 12:29:45
SLIDE 5 2020-10-18 19:16:26 2020-10-18 19:37:03 DM09ED > DM09BH 16.9 miles 313° 2020-10-18 19:16:26
W6CX-3 14 2020-10-18 10:55:40 2020-10-18 22:52:39 CM98XR > CM97BV 115.0 miles 241° 2020-10-18 21:50:24
VIRGPK 13 2020-10-18 12:51:50 2020-10-18 21:40:44 DM08AQ > DM09GS 77.4 miles 20° 2020-10-18 12:51:50
RANCHO 20 2020-10-18 11:37:55 2020-10-18 22:47:20 CM98OR > CM98QR 9.6 miles 92° 2020-10-18 11:37:55
K6FGA-1 15 2020-10-18 10:59:14 2020-10-18 22:09:36 CM98VP > CM99MF 60.0 miles 315° 2020-10-18 22:02:56
ECHO 11 2020-10-18 12:00:35 2020-10-18 22:17:04 CM98VP > KN79FN 6145.6 miles 16° 2020-10-18 22:06:29
SNOW 24 2020-10-18 12:34:01 2020-10-18 21:24:42 CM98WP > DM09BD 38.1 miles 21° 2020-10-18 12:34:01
CARSON 11 2020-10-18 12:46:54 2020-10-18 21:59:38 CM98WP > DM08AQ 8.3 miles 70° 2020-10-18 21:59:38
K6CDF-8 32 2020-10-18 10:51:37 2020-10-18 23:01:35 DM08AQ > CM89SC 136.8 miles 283° 2020-10-18 21:46:34
AG6IF-1 26 2020-10-18 13:32:33 2020-10-18 19:30:34 DM09CC > DM09FG 14.7 miles 47° 2020-10-18 13:32:33
ALDER 30 2020-10-18 11:52:21 2020-10-18 22:59:07 DM08CU > CM98TR 31.3 miles 255° 2020-10-18 21:20:36
K6MLE 1 2020-10-18 22:41:16 2020-10-18 22:41:16 CM98QQ > CM98PR 5.1 miles 305° 2020-10-18 22:41:16
W6SCR-4 1 2020-10-18 10:52:56 2020-10-18 10:52:56 CM98NR > CM99IM 61.3 miles 336° 2020-10-18 10:52:56
AC6ET-5 3 2020-10-18 12:16:47 2020-10-18 12:38:41 CM98WQ > CM89KC 161.8 miles 282° 2020-10-18 12:38:41
KQ6DI-4 1 2020-10-18 11:54:41 2020-10-18 11:54:41 CM98RS > CM98IG 52.5 miles 230° 2020-10-18 11:54:41
W6SRR-3 10 2020-10-18 11:44:45 2020-10-18 22:28:01 CM98VP > CM97AO 117.9 miles 234° 2020-10-18 22:02:55
GAPCON 2 2020-10-18 12:13:02 2020-10-18 18:47:25 DM09EC > CM99UA 39.5 miles 260° 2020-10-18 18:47:25
N6JWT-8 1 2020-10-18 22:04:32 2020-10-18 22:04:32 CM98VP > CM98TA 42.6 miles 192° 2020-10-18 22:04:32
GAPGTE 7 2020-10-18 11:45:37 2020-10-18 12:25:01 CM98VP > CM98GM 67.8 miles 263° 2020-10-18 12:25:01
KO6KL-1 1 2020-10-18 12:31:15 2020-10-18 12:31:15 CM98VP > CM97KR 80.4 miles 218° 2020-10-18 12:31:15
GTOWN 13 2020-10-18 10:52:55 2020-10-18 22:55:25 CM98VP > CM98NW 38.4 miles 301° 2020-10-18 22:09:00
MNDN 24 2020-10-18 13:07:30 2020-10-18 21:15:33 DM09FF > DM09CB 17.8 miles 225° 2020-10-18 14:25:37
N6VV-2 1 2020-10-18 11:50:13 2020-10-18 11:50:13 CM98QR > CM87WW 96.6 miles 236° 2020-10-18 11:50:13

Only position packets which were originated by the station are shown here. The range statistics show some extra long hops, because some digipeaters do not correctly add themselves to the digipeater path. Please check the raw packets.
About this site
This page shows real-time information collected from the Automatic Position Reporting System Internet network (APRS-IS). APRS is used by amateur (ham) radio operators to transmit real-time position information, weather data, telemetry and messages over the radio. A vehicle equipped with a GPS receiver, a VHF transmitter or HF transceiver and a small computer device called a tracker transmits it's location, speed and course in a small data packet, which is then received by a nearby iGate receiving site which forwards the packet on the Internet. Systems connected to the Internet can send information on the APRS-IS without a radio transmitter, or collect and display information transmitted anywhere in the world.
User guide · FAQ · Blog · Discussion group · Linking to aprs.fi · AIS sites · Service status · Database statistics · Advertising on aprs.fi · Technical details · API · Change log · Planned changes · Credits and thanks · Terms Of Service · iPhone/iPad APRS